sensor_id;sensor_type;location;lat;lon;timestamp;pressure;altitude;pressure_sealevel;temperature;humidity
68965;BME280;56017;48.680;8.998;2023-02-18T00:00:33;97650;;;12.1;82.5
68965;BME280;56017;48.680;8.998;2023-02-18T00:03:03;97650;;;12.1;82.5
68965;BME280;56017;48.680;8.998;2023-02-18T00:05:34;97640;;;12.2;82.5
68965;BME280;56017;48.680;8.998;2023-02-18T00:08:23;97640;;;12.2;82.5
68965;BME280;56017;48.680;8.998;2023-02-18T00:10:35;97640;;;12.2;82.5
68965;BME280;56017;48.680;8.998;2023-02-18T00:13:06;97640;;;12.2;82.5
68965;BME280;56017;48.680;8.998;2023-02-18T00:15:37;97640;;;12.2;82.5
68965;BME280;56017;48.680;8.998;2023-02-18T00:18:07;97640;;;12.2;82.5
68965;BME280;56017;48.680;8.998;2023-02-18T00:20:38;97640;;;12.2;82.5
68965;BME280;56017;48.680;8.998;2023-02-18T00:23:09;97640;;;12.2;82.5
68965;BME280;56017;48.680;8.998;2023-02-18T00:25:39;97630;;;12.2;82.5
68965;BME280;56017;48.680;8.998;2023-02-18T00:28:10;97630;;;12.2;82.5
68965;BME280;56017;48.680;8.998;2023-02-18T00:30:50;97640;;;12.2;82.5
68965;BME280;56017;48.680;8.998;2023-02-18T00:33:11;97640;;;12.2;82.5
68965;BME280;56017;48.680;8.998;2023-02-18T00:35:42;97640;;;12.2;82.5
68965;BME280;56017;48.680;8.998;2023-02-18T00:38:13;97640;;;12.2;82.5
68965;BME280;56017;48.680;8.998;2023-02-18T00:40:43;97650;;;12.2;82.5
68965;BME280;56017;48.680;8.998;2023-02-18T00:43:14;97640;;;12.2;82.5
68965;BME280;56017;48.680;8.998;2023-02-18T00:45:44;97640;;;12.2;82.5
68965;BME280;56017;48.680;8.998;2023-02-18T00:48:15;97630;;;12.2;82.5
68965;BME280;56017;48.680;8.998;2023-02-18T00:50:46;97620;;;12.1;82.5
68965;BME280;56017;48.680;8.998;2023-02-18T00:53:16;97610;;;12.1;82.5
68965;BME280;56017;48.680;8.998;2023-02-18T00:55:47;97610;;;12.1;82.5
68965;BME280;56017;48.680;8.998;2023-02-18T00:58:27;97610;;;12.1;82.5
68965;BME280;56017;48.680;8.998;2023-02-18T01:00:48;97610;;;12.2;82.5
68965;BME280;56017;48.680;8.998;2023-02-18T01:03:19;97610;;;12.2;82.5
68965;BME280;56017;48.680;8.998;2023-02-18T01:05:50;97610;;;12.2;82.5
68965;BME280;56017;48.680;8.998;2023-02-18T01:08:20;97620;;;12.2;82.5
68965;BME280;56017;48.680;8.998;2023-02-18T01:10:52;97620;;;12.2;82
68965;BME280;56017;48.680;8.998;2023-02-18T01:13:21;97610;;;12.2;82
68965;BME280;56017;48.680;8.998;2023-02-18T01:15:52;97610;;;12.2;82
68965;BME280;56017;48.680;8.998;2023-02-18T01:18:23;97610;;;12.2;82
68965;BME280;56017;48.680;8.998;2023-02-18T01:21:03;97600;;;12.1;82
68965;BME280;56017;48.680;8.998;2023-02-18T01:23:24;97600;;;12.1;82
68965;BME280;56017;48.680;8.998;2023-02-18T01:25:56;97610;;;12;82
68965;BME280;56017;48.680;8.998;2023-02-18T01:28:25;97600;;;12;82
68965;BME280;56017;48.680;8.998;2023-02-18T01:30:56;97600;;;12;82
68965;BME280;56017;48.680;8.998;2023-02-18T01:33:26;97600;;;12;82
68965;BME280;56017;48.680;8.998;2023-02-18T01:35:57;97590;;;12;82
68965;BME280;56017;48.680;8.998;2023-02-18T01:38:28;97590;;;12;82
68965;BME280;56017;48.680;8.998;2023-02-18T01:40:58;97600;;;12.1;82
68965;BME280;56017;48.680;8.998;2023-02-18T01:43:29;97580;;;12.1;82
68965;BME280;56017;48.680;8.998;2023-02-18T01:46:16;97580;;;12;82
68965;BME280;56017;48.680;8.998;2023-02-18T01:48:33;97580;;;12;82
68965;BME280;56017;48.680;8.998;2023-02-18T01:51:13;97580;;;12.1;82
68965;BME280;56017;48.680;8.998;2023-02-18T01:53:44;97580;;;12.1;82
68965;BME280;56017;48.680;8.998;2023-02-18T01:56:02;97570;;;12;82
68965;BME280;56017;48.680;8.998;2023-02-18T01:58:32;97580;;;12.1;82
68965;BME280;56017;48.680;8.998;2023-02-18T02:01:12;97570;;;12.1;82
68965;BME280;56017;48.680;8.998;2023-02-18T02:03:34;97570;;;12.1;82
68965;BME280;56017;48.680;8.998;2023-02-18T02:06:09;97560;;;12.1;82
68965;BME280;56017;48.680;8.998;2023-02-18T02:08:35;97570;;;12.1;82
68965;BME280;56017;48.680;8.998;2023-02-18T02:11:22;97570;;;12;82
68965;BME280;56017;48.680;8.998;2023-02-18T02:14:12;97560;;;11.9;82
68965;BME280;56017;48.680;8.998;2023-02-18T02:16:11;97560;;;11.8;82
68965;BME280;56017;48.680;8.998;2023-02-18T02:18:42;97560;;;11.8;82
68965;BME280;56017;48.680;8.998;2023-02-18T02:22:26;97570;;;11.8;82
68965;BME280;56017;48.680;8.998;2023-02-18T02:23:51;97570;;;11.7;82
68965;BME280;56017;48.680;8.998;2023-02-18T02:29:48;97560;;;11.6;82
68965;BME280;56017;48.680;8.998;2023-02-18T02:33:49;97570;;;11.6;82
68965;BME280;56017;48.680;8.998;2023-02-18T02:36:13;97570;;;11.5;82
68965;BME280;56017;48.680;8.998;2023-02-18T02:38:49;97570;;;11.5;82
68965;BME280;56017;48.680;8.998;2023-02-18T02:41:27;97560;;;11.5;82
68965;BME280;56017;48.680;8.998;2023-02-18T02:43:47;97550;;;11.6;82
68965;BME280;56017;48.680;8.998;2023-02-18T02:46:17;97540;;;11.6;82
68965;BME280;56017;48.680;8.998;2023-02-18T02:48:48;97540;;;11.7;82
68965;BME280;56017;48.680;8.998;2023-02-18T02:51:37;97540;;;11.7;82
68965;BME280;56017;48.680;8.998;2023-02-18T02:53:47;97540;;;11.7;82
68965;BME280;56017;48.680;8.998;2023-02-18T02:56:27;97540;;;11.7;82
68965;BME280;56017;48.680;8.998;2023-02-18T02:59:04;97540;;;11.7;82
68965;BME280;56017;48.680;8.998;2023-02-18T03:01:40;97540;;;11.6;82
68965;BME280;56017;48.680;8.998;2023-02-18T03:06:33;97540;;;11.6;82
68965;BME280;56017;48.680;8.998;2023-02-18T03:08:55;97550;;;11.7;82
68965;BME280;56017;48.680;8.998;2023-02-18T03:11:42;97540;;;11.7;82
68965;BME280;56017;48.680;8.998;2023-02-18T03:13:55;97550;;;11.8;82
68965;BME280;56017;48.680;8.998;2023-02-18T03:16:25;97550;;;11.8;82
68965;BME280;56017;48.680;8.998;2023-02-18T03:19:57;97540;;;11.8;82
68965;BME280;56017;48.680;8.998;2023-02-18T03:21:35;97530;;;11.9;82
68965;BME280;56017;48.680;8.998;2023-02-18T03:23:56;97540;;;11.9;82
68965;BME280;56017;48.680;8.998;2023-02-18T03:26:35;97540;;;11.9;82
68965;BME280;56017;48.680;8.998;2023-02-18T03:28:57;97530;;;12;82
68965;BME280;56017;48.680;8.998;2023-02-18T03:31:45;97530;;;12;81.5
68965;BME280;56017;48.680;8.998;2023-02-18T03:33:59;97520;;;11.9;81.5
68965;BME280;56017;48.680;8.998;2023-02-18T03:36:27;97510;;;11.8;81.5
68965;BME280;56017;48.680;8.998;2023-02-18T03:38:59;97520;;;11.7;81.5
68965;BME280;56017;48.680;8.998;2023-02-18T03:41:38;97510;;;11.6;81.5
68965;BME280;56017;48.680;8.998;2023-02-18T03:44:00;97510;;;11.5;81.5
68965;BME280;56017;48.680;8.998;2023-02-18T03:46:30;97500;;;11.4;81.5
68965;BME280;56017;48.680;8.998;2023-02-18T03:49:01;97510;;;11.4;81.5
68965;BME280;56017;48.680;8.998;2023-02-18T03:51:41;97510;;;11.4;81.5
68965;BME280;56017;48.680;8.998;2023-02-18T03:54:11;97510;;;11.3;81.5
68965;BME280;56017;48.680;8.998;2023-02-18T03:56:34;97520;;;11.3;81.5
68965;BME280;56017;48.680;8.998;2023-02-18T03:59:03;97520;;;11.3;81.5
68965;BME280;56017;48.680;8.998;2023-02-18T04:01:43;97510;;;11.3;82
68965;BME280;56017;48.680;8.998;2023-02-18T04:04:14;97520;;;11.4;82
68965;BME280;56017;48.680;8.998;2023-02-18T04:06:44;97510;;;11.4;81.5
68965;BME280;56017;48.680;8.998;2023-02-18T04:09:06;97520;;;11.4;81.5
68965;BME280;56017;48.680;8.998;2023-02-18T04:11:46;97520;;;11.4;81.5
68965;BME280;56017;48.680;8.998;2023-02-18T04:14:07;97510;;;11.3;81.5
68965;BME280;56017;48.680;8.998;2023-02-18T04:16:47;97510;;;11.2;81.5
68965;BME280;56017;48.680;8.998;2023-02-18T04:19:08;97510;;;11.2;81.5
68965;BME280;56017;48.680;8.998;2023-02-18T04:21:48;97510;;;11.1;81.5
68965;BME280;56017;48.680;8.998;2023-02-18T04:24:10;97510;;;11.1;81.5
68965;BME280;56017;48.680;8.998;2023-02-18T04:26:50;97500;;;11.1;81.5
68965;BME280;56017;48.680;8.998;2023-02-18T04:29:11;97510;;;11.1;81.5
68965;BME280;56017;48.680;8.998;2023-02-18T04:31:51;97500;;;11.1;81.5
68965;BME280;56017;48.680;8.998;2023-02-18T04:34:12;97500;;;11.1;81.5
68965;BME280;56017;48.680;8.998;2023-02-18T04:36:43;97500;;;11.1;81.5
68965;BME280;56017;48.680;8.998;2023-02-18T04:39:14;97500;;;11.1;81.5
68965;BME280;56017;48.680;8.998;2023-02-18T04:41:53;97500;;;11.1;81.5
68965;BME280;56017;48.680;8.998;2023-02-18T04:44:15;97500;;;11.2;81.5
68965;BME280;56017;48.680;8.998;2023-02-18T04:46:55;97500;;;11.2;81.5
68965;BME280;56017;48.680;8.998;2023-02-18T04:49:16;97500;;;11.2;81.5
68965;BME280;56017;48.680;8.998;2023-02-18T04:51:56;97510;;;11.2;81.5
68965;BME280;56017;48.680;8.998;2023-02-18T04:54:17;97500;;;11.1;81.5
68965;BME280;56017;48.680;8.998;2023-02-18T04:56:48;97500;;;11.1;81.5
68965;BME280;56017;48.680;8.998;2023-02-18T04:59:19;97500;;;11.1;81.5
68965;BME280;56017;48.680;8.998;2023-02-18T05:01:59;97500;;;11.1;81.5
68965;BME280;56017;48.680;8.998;2023-02-18T05:04:20;97500;;;11.1;81.5
68965;BME280;56017;48.680;8.998;2023-02-18T05:07:00;97490;;;11.1;81.5
68965;BME280;56017;48.680;8.998;2023-02-18T05:09:21;97490;;;11.1;81.5
68965;BME280;56017;48.680;8.998;2023-02-18T05:11:52;97490;;;11.1;81.5
68965;BME280;56017;48.680;8.998;2023-02-18T05:14:23;97490;;;11.1;81.5
68965;BME280;56017;48.680;8.998;2023-02-18T05:17:02;97490;;;11.2;81.5
68965;BME280;56017;48.680;8.998;2023-02-18T05:19:24;97500;;;11.2;81.5
68965;BME280;56017;48.680;8.998;2023-02-18T05:22:04;97500;;;11.3;81.5
68965;BME280;56017;48.680;8.998;2023-02-18T05:24:25;97500;;;11.4;81.5
68965;BME280;56017;48.680;8.998;2023-02-18T05:26:56;97490;;;11.4;81
68965;BME280;56017;48.680;8.998;2023-02-18T05:29:26;97490;;;11.4;81
68965;BME280;56017;48.680;8.998;2023-02-18T05:32:06;97490;;;11.4;81
68965;BME280;56017;48.680;8.998;2023-02-18T05:34:28;97490;;;11.4;81
68965;BME280;56017;48.680;8.998;2023-02-18T05:36:58;97500;;;11.4;81
68965;BME280;56017;48.680;8.998;2023-02-18T05:39:29;97500;;;11.5;81
68965;BME280;56017;48.680;8.998;2023-02-18T05:42:09;97500;;;11.5;81
68965;BME280;56017;48.680;8.998;2023-02-18T05:44:30;97500;;;11.5;81
68965;BME280;56017;48.680;8.998;2023-02-18T05:47:11;97490;;;11.5;81
68965;BME280;56017;48.680;8.998;2023-02-18T05:49:32;97490;;;11.4;81
68965;BME280;56017;48.680;8.998;2023-02-18T05:52:21;97490;;;11.4;81.5
68965;BME280;56017;48.680;8.998;2023-02-18T05:54:33;97480;;;11.4;81.5
68965;BME280;56017;48.680;8.998;2023-02-18T05:57:03;97490;;;11.4;81
68965;BME280;56017;48.680;8.998;2023-02-18T05:59:34;97490;;;11.4;81
68965;BME280;56017;48.680;8.998;2023-02-18T06:02:23;97490;;;11.3;81.5
68965;BME280;56017;48.680;8.998;2023-02-18T06:04:35;97490;;;11.2;81.5
68965;BME280;56017;48.680;8.998;2023-02-18T06:07:15;97490;;;11.2;81.5
68965;BME280;56017;48.680;8.998;2023-02-18T06:09:37;97490;;;11.2;81.5
68965;BME280;56017;48.680;8.998;2023-02-18T06:12:07;97490;;;11.2;81.5
68965;BME280;56017;48.680;8.998;2023-02-18T06:14:38;97480;;;11.1;81
68965;BME280;56017;48.680;8.998;2023-02-18T06:17:18;97470;;;11.1;81
68965;BME280;56017;48.680;8.998;2023-02-18T06:19:39;97470;;;11;81.5
68965;BME280;56017;48.680;8.998;2023-02-18T06:22:10;97470;;;10.9;81.5
68965;BME280;56017;48.680;8.998;2023-02-18T06:24:40;97470;;;10.9;81.5
68965;BME280;56017;48.680;8.998;2023-02-18T06:27:11;97470;;;10.9;81.5
68965;BME280;56017;48.680;8.998;2023-02-18T06:29:42;97470;;;10.9;81.5
68965;BME280;56017;48.680;8.998;2023-02-18T06:32:31;97480;;;10.9;81.5
68965;BME280;56017;48.680;8.998;2023-02-18T06:34:43;97480;;;11;81.5
68965;BME280;56017;48.680;8.998;2023-02-18T06:37:23;97480;;;11;81.5
68965;BME280;56017;48.680;8.998;2023-02-18T06:39:44;97480;;;11;81.5
68965;BME280;56017;48.680;8.998;2023-02-18T06:42:24;97490;;;11.1;81.5
68965;BME280;56017;48.680;8.998;2023-02-18T06:44:46;97480;;;11.1;81.5
68965;BME280;56017;48.680;8.998;2023-02-18T06:47:16;97490;;;11.2;81.5
68965;BME280;56017;48.680;8.998;2023-02-18T06:49:47;97480;;;11.2;81
68965;BME280;56017;48.680;8.998;2023-02-18T06:52:28;97480;;;11.3;81
68965;BME280;56017;48.680;8.998;2023-02-18T06:54:48;97480;;;11.3;81
68965;BME280;56017;48.680;8.998;2023-02-18T06:57:28;97480;;;11.4;81
68965;BME280;56017;48.680;8.998;2023-02-18T06:59:49;97480;;;11.4;81
68965;BME280;56017;48.680;8.998;2023-02-18T07:02:29;97490;;;11.4;81
68965;BME280;56017;48.680;8.998;2023-02-18T07:04:51;97480;;;11.4;81
68965;BME280;56017;48.680;8.998;2023-02-18T07:07:21;97480;;;11.4;81
68965;BME280;56017;48.680;8.998;2023-02-18T07:09:52;97480;;;11.5;81
68965;BME280;56017;48.680;8.998;2023-02-18T07:12:32;97480;;;11.6;81
68965;BME280;56017;48.680;8.998;2023-02-18T07:15:01;97480;;;11.8;81
68965;BME280;56017;48.680;8.998;2023-02-18T07:17:24;97490;;;11.9;81
68965;BME280;56017;48.680;8.998;2023-02-18T07:19:55;97490;;;11.9;81
68965;BME280;56017;48.680;8.998;2023-02-18T07:22:35;97490;;;12;81
68965;BME280;56017;48.680;8.998;2023-02-18T07:24:56;97480;;;12.1;81
68965;BME280;56017;48.680;8.998;2023-02-18T07:27:27;97490;;;12.2;81
68965;BME280;56017;48.680;8.998;2023-02-18T07:29:57;97480;;;12.2;81
68965;BME280;56017;48.680;8.998;2023-02-18T07:32:46;97480;;;12.3;81
68965;BME280;56017;48.680;8.998;2023-02-18T07:34:58;97480;;;12.3;81
68965;BME280;56017;48.680;8.998;2023-02-18T07:37:29;97470;;;12.4;81
68965;BME280;56017;48.680;8.998;2023-02-18T07:40:00;97470;;;12.5;81
68965;BME280;56017;48.680;8.998;2023-02-18T07:42:40;97470;;;12.6;81
68965;BME280;56017;48.680;8.998;2023-02-18T07:45:01;97460;;;12.6;81
68965;BME280;56017;48.680;8.998;2023-02-18T07:47:32;97460;;;12.7;81
68965;BME280;56017;48.680;8.998;2023-02-18T07:50:03;97460;;;12.7;81
68965;BME280;56017;48.680;8.998;2023-02-18T07:52:42;97460;;;12.8;81
68965;BME280;56017;48.680;8.998;2023-02-18T07:55:04;97470;;;12.8;81
68965;BME280;56017;48.680;8.998;2023-02-18T07:57:44;97450;;;12.8;81
68965;BME280;56017;48.680;8.998;2023-02-18T08:00:05;97460;;;12.8;81
68965;BME280;56017;48.680;8.998;2023-02-18T08:02:45;97450;;;12.8;81
68965;BME280;56017;48.680;8.998;2023-02-18T08:05:08;97450;;;12.8;81
68965;BME280;56017;48.680;8.998;2023-02-18T08:07:46;97440;;;12.9;81
68965;BME280;56017;48.680;8.998;2023-02-18T08:10:08;97450;;;12.9;81
68965;BME280;56017;48.680;8.998;2023-02-18T08:12:48;97450;;;12.9;81
68965;BME280;56017;48.680;8.998;2023-02-18T08:15:09;97460;;;12.9;81
68965;BME280;56017;48.680;8.998;2023-02-18T08:17:39;97450;;;12.9;81
68965;BME280;56017;48.680;8.998;2023-02-18T08:20:10;97460;;;12.9;81
68965;BME280;56017;48.680;8.998;2023-02-18T08:22:50;97450;;;12.9;81
68965;BME280;56017;48.680;8.998;2023-02-18T08:25:12;97450;;;12.9;81
68965;BME280;56017;48.680;8.998;2023-02-18T08:27:42;97450;;;13;81
68965;BME280;56017;48.680;8.998;2023-02-18T08:30:12;97470;;;13;81
68965;BME280;56017;48.680;8.998;2023-02-18T08:32:52;97460;;;13;81
68965;BME280;56017;48.680;8.998;2023-02-18T08:35:14;97460;;;13.1;81
68965;BME280;56017;48.680;8.998;2023-02-18T08:37:44;97450;;;13.1;81
68965;BME280;56017;48.680;8.998;2023-02-18T08:40:15;97450;;;13.1;81
68965;BME280;56017;48.680;8.998;2023-02-18T08:42:55;97460;;;13.1;81
68965;BME280;56017;48.680;8.998;2023-02-18T08:45:17;97460;;;13.1;81
68965;BME280;56017;48.680;8.998;2023-02-18T08:47:56;97460;;;13.1;81
68965;BME280;56017;48.680;8.998;2023-02-18T08:50:18;97450;;;13.1;81
68965;BME280;56017;48.680;8.998;2023-02-18T08:53:07;97450;;;13.2;81
68965;BME280;56017;48.680;8.998;2023-02-18T08:55:20;97440;;;13.3;81
68965;BME280;56017;48.680;8.998;2023-02-18T08:57:59;97450;;;13.3;81
68965;BME280;56017;48.680;8.998;2023-02-18T09:00:20;97440;;;13.4;81
68965;BME280;56017;48.680;8.998;2023-02-18T09:03:00;97440;;;13.4;81
68965;BME280;56017;48.680;8.998;2023-02-18T09:05:31;97430;;;13.5;81
68965;BME280;56017;48.680;8.998;2023-02-18T09:07:52;97430;;;13.4;81
68965;BME280;56017;48.680;8.998;2023-02-18T09:10:23;97440;;;13.4;81
68965;BME280;56017;48.680;8.998;2023-02-18T09:13:03;97420;;;13.4;81
68965;BME280;56017;48.680;8.998;2023-02-18T09:15:25;97430;;;13.4;81
68965;BME280;56017;48.680;8.998;2023-02-18T09:18:04;97430;;;13.4;81
68965;BME280;56017;48.680;8.998;2023-02-18T09:20:26;97430;;;13.4;81
68965;BME280;56017;48.680;8.998;2023-02-18T09:22:56;97420;;;13.6;81
68965;BME280;56017;48.680;8.998;2023-02-18T09:25:27;97420;;;13.8;81
68965;BME280;56017;48.680;8.998;2023-02-18T09:27:57;97430;;;14;80.5
68965;BME280;56017;48.680;8.998;2023-02-18T09:30:28;97410;;;13.9;80.5
68965;BME280;56017;48.680;8.998;2023-02-18T09:33:08;97420;;;13.9;80.5
68965;BME280;56017;48.680;8.998;2023-02-18T09:35:40;97420;;;13.8;80.5
68965;BME280;56017;48.680;8.998;2023-02-18T09:38:00;97410;;;13.7;80.5
68965;BME280;56017;48.680;8.998;2023-02-18T09:40:31;97410;;;13.7;80.5
68965;BME280;56017;48.680;8.998;2023-02-18T09:43:15;97400;;;13.7;81
68965;BME280;56017;48.680;8.998;2023-02-18T09:45:32;97410;;;13.7;81
68965;BME280;56017;48.680;8.998;2023-02-18T09:48:02;97400;;;13.8;81
68965;BME280;56017;48.680;8.998;2023-02-18T09:50:33;97400;;;13.8;80.5
68965;BME280;56017;48.680;8.998;2023-02-18T09:53:13;97410;;;13.8;81
68965;BME280;56017;48.680;8.998;2023-02-18T09:55:36;97430;;;13.7;80.5
68965;BME280;56017;48.680;8.998;2023-02-18T09:58:08;97420;;;13.7;81
68965;BME280;56017;48.680;8.998;2023-02-18T10:00:37;97420;;;13.6;81
68965;BME280;56017;48.680;8.998;2023-02-18T10:03:07;97430;;;13.6;81
68965;BME280;56017;48.680;8.998;2023-02-18T10:05:37;97440;;;13.5;81
68965;BME280;56017;48.680;8.998;2023-02-18T10:08:16;97440;;;13.6;81
68965;BME280;56017;48.680;8.998;2023-02-18T10:10:39;97430;;;13.6;81
68965;BME280;56017;48.680;8.998;2023-02-18T10:13:19;97430;;;13.6;81
68965;BME280;56017;48.680;8.998;2023-02-18T10:15:40;97450;;;13.6;81
68965;BME280;56017;48.680;8.998;2023-02-18T10:18:27;97440;;;13.6;81
68965;BME280;56017;48.680;8.998;2023-02-18T10:20:41;97430;;;13.6;81
68965;BME280;56017;48.680;8.998;2023-02-18T10:23:31;97420;;;13.6;81
68965;BME280;56017;48.680;8.998;2023-02-18T10:25:43;97410;;;13.6;81
68965;BME280;56017;48.680;8.998;2023-02-18T10:28:13;97410;;;13.6;81
68965;BME280;56017;48.680;8.998;2023-02-18T10:30:50;97420;;;13.6;81
68965;BME280;56017;48.680;8.998;2023-02-18T10:33:31;97430;;;13.6;80.5
68965;BME280;56017;48.680;8.998;2023-02-18T10:35:51;97430;;;13.6;81
68965;BME280;56017;48.680;8.998;2023-02-18T10:38:19;97440;;;13.5;81
68965;BME280;56017;48.680;8.998;2023-02-18T10:41:05;97430;;;13.5;81
68965;BME280;56017;48.680;8.998;2023-02-18T10:43:30;97430;;;13.5;81
68965;BME280;56017;48.680;8.998;2023-02-18T10:48:22;97450;;;13.6;81
68965;BME280;56017;48.680;8.998;2023-02-18T10:50:48;97430;;;13.6;81
68965;BME280;56017;48.680;8.998;2023-02-18T10:53:32;97430;;;13.7;81
68965;BME280;56017;48.680;8.998;2023-02-18T10:55:59;97430;;;13.7;81
68965;BME280;56017;48.680;8.998;2023-02-18T10:58:41;97430;;;13.7;81
68965;BME280;56017;48.680;8.998;2023-02-18T11:00:51;97430;;;13.7;81
68965;BME280;56017;48.680;8.998;2023-02-18T11:03:42;97430;;;13.7;81
68965;BME280;56017;48.680;8.998;2023-02-18T11:08:36;97430;;;13.8;81
68965;BME280;56017;48.680;8.998;2023-02-18T11:10:54;97420;;;13.9;80.5
68965;BME280;56017;48.680;8.998;2023-02-18T11:13:34;97420;;;13.9;81
68965;BME280;56017;48.680;8.998;2023-02-18T11:15:57;97410;;;14;81
68965;BME280;56017;48.680;8.998;2023-02-18T11:18:37;97400;;;14;80.5
68965;BME280;56017;48.680;8.998;2023-02-18T11:20:57;97390;;;14;80.5
68965;BME280;56017;48.680;8.998;2023-02-18T11:23:44;97400;;;13.9;80.5
68965;BME280;56017;48.680;8.998;2023-02-18T11:26:02;97420;;;13.8;80.5
68965;BME280;56017;48.680;8.998;2023-02-18T11:28:45;97400;;;13.8;81
68965;BME280;56017;48.680;8.998;2023-02-18T11:30:59;97380;;;13.8;81
68965;BME280;56017;48.680;8.998;2023-02-18T11:33:40;97380;;;14;81
68965;BME280;56017;48.680;8.998;2023-02-18T11:36:03;97390;;;14.1;81
68965;BME280;56017;48.680;8.998;2023-02-18T11:38:34;97380;;;14.1;80.5
68965;BME280;56017;48.680;8.998;2023-02-18T11:41:05;97380;;;14.2;80.5
68965;BME280;56017;48.680;8.998;2023-02-18T11:43:32;97360;;;14.3;80.5
68965;BME280;56017;48.680;8.998;2023-02-18T11:46:11;97370;;;14.5;80.5
68965;BME280;56017;48.680;8.998;2023-02-18T11:48:43;97360;;;14.5;80.5
68965;BME280;56017;48.680;8.998;2023-02-18T11:51:04;97350;;;14.5;80.5
68965;BME280;56017;48.680;8.998;2023-02-18T11:53:52;97350;;;14.5;80.5
68965;BME280;56017;48.680;8.998;2023-02-18T11:56:08;97360;;;14.5;80.5
68965;BME280;56017;48.680;8.998;2023-02-18T11:58:38;97360;;;14.5;80.5
68965;BME280;56017;48.680;8.998;2023-02-18T12:01:11;97360;;;14.5;80.5
68965;BME280;56017;48.680;8.998;2023-02-18T12:03:57;97360;;;14.5;80.5
68965;BME280;56017;48.680;8.998;2023-02-18T12:07:14;97360;;;14.5;80.5
68965;BME280;56017;48.680;8.998;2023-02-18T12:08:43;97360;;;14.5;80.5
68965;BME280;56017;48.680;8.998;2023-02-18T12:11:10;97350;;;14.5;80.5
68965;BME280;56017;48.680;8.998;2023-02-18T12:13:50;97370;;;14.5;80.5
68965;BME280;56017;48.680;8.998;2023-02-18T12:17:19;97370;;;14.5;80.5
68965;BME280;56017;48.680;8.998;2023-02-18T12:18:52;97350;;;14.4;80.5
68965;BME280;56017;48.680;8.998;2023-02-18T12:21:17;97360;;;14.4;80.5
68965;BME280;56017;48.680;8.998;2023-02-18T12:24:00;97360;;;14.4;80.5
68965;BME280;56017;48.680;8.998;2023-02-18T12:26:18;97380;;;14.4;80.5
68965;BME280;56017;48.680;8.998;2023-02-18T12:28:57;97350;;;14.4;80.5
68965;BME280;56017;48.680;8.998;2023-02-18T12:31:25;97360;;;14.5;80.5
68965;BME280;56017;48.680;8.998;2023-02-18T12:34:11;97350;;;14.6;80.5
68965;BME280;56017;48.680;8.998;2023-02-18T12:36:35;97350;;;14.7;80.5
68965;BME280;56017;48.680;8.998;2023-02-18T12:38:52;97340;;;14.7;80.5
68965;BME280;56017;48.680;8.998;2023-02-18T12:41:22;97330;;;14.7;80.5
68965;BME280;56017;48.680;8.998;2023-02-18T12:44:03;97340;;;14.8;80.5
68965;BME280;56017;48.680;8.998;2023-02-18T12:46:21;97330;;;14.8;80.5
68965;BME280;56017;48.680;8.998;2023-02-18T12:51:22;97330;;;14.9;80
68965;BME280;56017;48.680;8.998;2023-02-18T12:54:03;97330;;;14.9;80.5
68965;BME280;56017;48.680;8.998;2023-02-18T12:56:33;97340;;;15;80
68965;BME280;56017;48.680;8.998;2023-02-18T12:58:54;97340;;;15;80
68965;BME280;56017;48.680;8.998;2023-02-18T13:01:24;97340;;;14.9;80
68965;BME280;56017;48.680;8.998;2023-02-18T13:03:58;97350;;;14.9;80
68965;BME280;56017;48.680;8.998;2023-02-18T13:14:03;97320;;;15.1;80
68965;BME280;56017;48.680;8.998;2023-02-18T13:16:25;97310;;;15.2;80
68965;BME280;56017;48.680;8.998;2023-02-18T13:18:58;97310;;;15.2;80
68965;BME280;56017;48.680;8.998;2023-02-18T13:21:27;97320;;;15.4;80
68965;BME280;56017;48.680;8.998;2023-02-18T13:23:59;97320;;;15.5;80
68965;BME280;56017;48.680;8.998;2023-02-18T13:26:28;97310;;;15.5;79.5
68965;BME280;56017;48.680;8.998;2023-02-18T13:29:15;97320;;;15.5;80
68965;BME280;56017;48.680;8.998;2023-02-18T13:32:05;97300;;;15.4;80
68965;BME280;56017;48.680;8.998;2023-02-18T13:34:03;97320;;;15.4;80
68965;BME280;56017;48.680;8.998;2023-02-18T13:36:32;97310;;;15.5;80
68965;BME280;56017;48.680;8.998;2023-02-18T13:39:12;97300;;;15.5;80
68965;BME280;56017;48.680;8.998;2023-02-18T13:41:41;97310;;;15.5;80
68965;BME280;56017;48.680;8.998;2023-02-18T13:44:06;97300;;;15.4;80
68965;BME280;56017;48.680;8.998;2023-02-18T13:46:46;97300;;;15.4;80
68965;BME280;56017;48.680;8.998;2023-02-18T13:49:13;97290;;;15.4;80
68965;BME280;56017;48.680;8.998;2023-02-18T13:51:37;97300;;;15.5;80
68965;BME280;56017;48.680;8.998;2023-02-18T13:54:20;97290;;;15.3;80
68965;BME280;56017;48.680;8.998;2023-02-18T13:56:38;97280;;;15.4;79.5
68965;BME280;56017;48.680;8.998;2023-02-18T13:59:16;97300;;;15.6;79.5
68965;BME280;56017;48.680;8.998;2023-02-18T14:01:47;97290;;;15.6;79.5
68965;BME280;56017;48.680;8.998;2023-02-18T14:05:16;97290;;;15.5;79.5
68965;BME280;56017;48.680;8.998;2023-02-18T14:06:39;97290;;;15.6;79.5
68965;BME280;56017;48.680;8.998;2023-02-18T14:09:35;97280;;;15.7;79.5
68965;BME280;56017;48.680;8.998;2023-02-18T14:14:14;97270;;;16.6;78
68965;BME280;56017;48.680;8.998;2023-02-18T14:17:46;97270;;;16.4;78.5
68965;BME280;56017;48.680;8.998;2023-02-18T14:19:28;97270;;;16;79
